Time;durP1;ratioP1;P1;durP2;ratioP2;P2;SDS_P1;SDS_P2;PMS_P1;PMS_P2;Temp;Humidity;BMP_temperature;BMP_pressure;BME280_temperature;BME280_humidity;BME280_pressure;Samples;Min_cycle;Max_cycle;Signal;HPM_P1;HPM_P2
2023/05/15 00:00:33;;;;;;;2.80;2.60;;;;;;;12.59;68.46;96522.69;108824;1252;99324;-77
2023/05/15 00:03:21;;;;;;;3.80;2.40;;;;;;;12.60;68.64;96521.77;108764;1253;95608;-77
2023/05/15 00:05:49;;;;;;;3.60;2.40;;;;;;;12.59;68.83;96517.88;108762;1251;96021;-75
2023/05/15 00:08:17;;;;;;;4.30;2.50;;;;;;;12.57;68.94;96516.85;108793;1252;103383;-76
2023/05/15 00:10:45;;;;;;;5.70;2.70;;;;;;;12.55;69.14;96514.45;108590;1252;101485;-77
2023/05/15 00:13:13;;;;;;;3.80;2.90;;;;;;;12.53;69.31;96507.50;108409;1253;101047;-74
2023/05/15 00:15:41;;;;;;;3.40;2.80;;;;;;;12.49;69.72;96509.05;108775;1252;95824;-75
2023/05/15 00:18:09;;;;;;;6.50;3.20;;;;;;;12.47;69.74;96510.90;108854;1252;96441;-76
2023/05/15 00:20:38;;;;;;;5.50;2.70;;;;;;;12.48;69.76;96506.20;108567;1253;104711;-75
2023/05/15 00:23:06;;;;;;;3.50;2.20;;;;;;;12.49;69.97;96502.81;108799;1252;101878;-78
2023/05/15 00:25:34;;;;;;;6.60;2.10;;;;;;;12.45;70.16;96499.87;108815;1253;100253;-75
2023/05/15 00:28:02;;;;;;;2.70;2.50;;;;;;;12.41;70.26;96499.27;108829;1251;95545;-75
2023/05/15 00:30:30;;;;;;;3.10;2.20;;;;;;;12.39;70.51;96499.67;108825;1253;96199;-75
2023/05/15 00:32:58;;;;;;;4.00;2.30;;;;;;;12.38;70.66;96496.67;108799;1251;102496;-75
2023/05/15 00:35:26;;;;;;;4.50;2.10;;;;;;;12.38;70.78;96483.35;108862;1253;101826;-75
2023/05/15 00:37:54;;;;;;;3.60;1.60;;;;;;;12.36;70.88;96469.61;108760;1252;99992;-74
2023/05/15 00:40:24;;;;;;;1.60;1.50;;;;;;;12.34;70.99;96465.95;108810;1252;95517;-75
2023/05/15 00:42:53;;;;;;;2.90;2.30;;;;;;;12.30;70.98;96458.55;108802;1253;96455;-76
2023/05/15 00:45:22;;;;;;;4.70;2.50;;;;;;;12.24;71.14;96460.33;108618;1253;112158;-75
2023/05/15 00:47:51;;;;;;;3.30;2.50;;;;;;;12.21;71.32;96457.02;108875;1250;101544;-78
2023/05/15 00:50:19;;;;;;;2.50;2.30;;;;;;;12.23;71.52;96465.51;108876;1250;100157;-78
2023/05/15 00:52:48;;;;;;;3.10;2.20;;;;;;;12.23;71.52;96464.96;108863;1250;95809;-75
2023/05/15 00:55:16;;;;;;;2.70;2.10;;;;;;;12.22;71.69;96460.06;108640;1250;95998;-75
2023/05/15 00:57:46;;;;;;;5.50;2.50;;;;;;;12.19;71.86;96460.62;108973;1250;103428;-76
2023/05/15 01:00:17;;;;;;;4.10;2.40;;;;;;;12.17;71.90;96461.52;108916;1250;101369;-75
2023/05/15 01:02:45;;;;;;;3.00;2.50;;;;;;;12.17;72.10;96457.73;108642;1250;99982;-75
2023/05/15 01:05:14;;;;;;;4.10;2.30;;;;;;;12.16;72.14;96459.72;108871;1250;95822;-75
2023/05/15 01:07:52;;;;;;;4.00;2.00;;;;;;;12.16;72.53;96461.73;108600;1250;96715;-75
2023/05/15 01:10:21;;;;;;;3.70;2.70;;;;;;;12.13;72.47;96462.84;108916;1250;103220;-78
2023/05/15 01:12:53;;;;;;;2.80;2.50;;;;;;;12.14;72.50;96457.98;108950;1250;101367;-77
2023/05/15 01:15:21;;;;;;;2.50;2.30;;;;;;;12.16;72.79;96455.60;108906;1250;100350;-74
2023/05/15 01:17:51;;;;;;;2.90;1.90;;;;;;;12.14;72.91;96453.88;108912;1250;95586;-76
2023/05/15 01:20:20;;;;;;;3.30;1.90;;;;;;;12.13;72.91;96463.92;108897;1250;96002;-77
2023/05/15 01:22:54;;;;;;;3.70;2.10;;;;;;;12.14;72.95;96468.77;108899;1250;103258;-75
2023/05/15 01:25:52;;;;;;;2.50;2.00;;;;;;;12.14;73.06;96467.68;108928;1254;101675;-74
2023/05/15 01:28:30;;;;;;;2.90;1.30;;;;;;;12.15;73.10;96461.79;108902;1250;100111;-77
2023/05/15 01:31:05;;;;;;;1.80;1.50;;;;;;;12.15;73.21;96457.30;108663;1250;95842;-74
2023/05/15 01:33:38;;;;;;;2.50;1.40;;;;;;;12.13;73.38;96450.30;108819;1250;96280;-75
2023/05/15 01:36:36;;;;;;;1.50;1.40;;;;;;;12.12;73.50;96449.23;108902;1250;103415;-75
2023/05/15 01:39:05;;;;;;;3.60;1.70;;;;;;;12.09;73.65;96450.00;108882;1250;101598;-74
2023/05/15 01:41:51;;;;;;;1.80;1.30;;;;;;;12.10;73.58;96447.15;108903;1250;99904;-74
2023/05/15 01:44:28;;;;;;;3.50;1.40;;;;;;;12.12;73.70;96443.29;108933;1250;95659;-76
2023/05/15 01:47:00;;;;;;;2.20;1.40;;;;;;;12.10;73.75;96442.88;108940;1250;96148;-74
2023/05/15 01:49:31;;;;;;;1.30;1.00;;;;;;;12.09;73.87;96440.20;108898;1250;103779;-77
2023/05/15 01:52:21;;;;;;;1.50;1.20;;;;;;;12.08;73.93;96431.21;108896;1250;101505;-75
2023/05/15 01:54:50;;;;;;;2.80;1.20;;;;;;;12.09;74.03;96423.77;108880;1250;99525;-75
2023/05/15 01:57:20;;;;;;;1.40;1.20;;;;;;;12.10;73.91;96418.48;108912;1250;95913;-74
2023/05/15 01:59:50;;;;;;;1.70;1.30;;;;;;;12.12;74.09;96412.79;108904;1252;96090;-74
2023/05/15 02:02:19;;;;;;;1.80;1.30;;;;;;;12.13;74.07;96403.98;108865;1250;103946;-75
2023/05/15 02:04:53;;;;;;;3.40;1.80;;;;;;;12.14;74.15;96401.13;108938;1250;101337;-74
2023/05/15 02:07:21;;;;;;;4.80;1.80;;;;;;;12.14;74.10;96401.67;108869;1250;100024;-75
2023/05/15 02:09:52;;;;;;;2.30;1.80;;;;;;;12.14;74.25;96396.27;108891;1250;95809;-77
2023/05/15 02:12:21;;;;;;;1.60;1.50;;;;;;;12.14;74.18;96390.64;108869;1250;96108;-75
2023/05/15 02:14:50;;;;;;;2.10;1.60;;;;;;;12.16;74.34;96383.90;108875;1250;103522;-76
2023/05/15 02:17:21;;;;;;;2.40;1.60;;;;;;;12.17;74.30;96381.55;108930;1250;100430;-76
2023/05/15 02:19:50;;;;;;;2.80;1.80;;;;;;;12.19;74.28;96386.45;108904;1250;99873;-75
2023/05/15 02:22:18;;;;;;;2.20;1.50;;;;;;;12.19;74.42;96386.23;108870;1250;95492;-75
2023/05/15 02:24:46;;;;;;;3.20;1.70;;;;;;;12.17;74.57;96382.75;108892;1250;95948;-75
2023/05/15 02:27:51;;;;;;;2.20;1.50;;;;;;;12.16;74.65;96377.63;108902;1250;103677;-75
2023/05/15 02:30:38;;;;;;;1.90;1.50;;;;;;;12.12;74.83;96374.85;108343;1256;100648;-75
2023/05/15 02:33:18;;;;;;;1.70;1.20;;;;;;;12.09;74.98;96369.44;108349;1257;99667;-75
2023/05/15 02:35:53;;;;;;;2.10;1.20;;;;;;;12.08;75.06;96363.64;108306;1257;95655;-75
2023/05/15 02:38:33;;;;;;;0.90;0.90;;;;;;;12.08;75.08;96359.95;108327;1257;96969;-75
2023/05/15 02:41:03;;;;;;;5.40;1.30;;;;;;;12.05;75.22;96360.30;108287;1257;103570;-74
2023/05/15 02:43:33;;;;;;;1.70;1.60;;;;;;;12.03;75.34;96364.38;108365;1257;101467;-78
2023/05/15 02:46:01;;;;;;;2.90;1.80;;;;;;;12.02;75.29;96364.14;108330;1258;100055;-75
2023/05/15 02:48:29;;;;;;;3.60;1.70;;;;;;;12.02;75.40;96357.81;108093;1265;95651;-75
2023/05/15 02:50:58;;;;;;;1.50;1.40;;;;;;;12.03;75.56;96361.46;108231;1258;95607;-76
2023/05/15 02:53:26;;;;;;;1.70;1.50;;;;;;;12.03;75.67;96361.34;108236;1259;104007;-75
2023/05/15 02:55:54;;;;;;;2.20;1.50;;;;;;;12.01;75.62;96364.84;108283;1258;101540;-74
2023/05/15 02:58:22;;;;;;;1.60;1.20;;;;;;;11.98;75.76;96364.23;108268;1258;100329;-75
2023/05/15 03:00:50;;;;;;;1.60;1.50;;;;;;;11.98;75.85;96363.69;108256;1257;95644;-77
2023/05/15 03:03:18;;;;;;;3.30;1.40;;;;;;;11.98;76.03;96371.09;108303;1259;96039;-74
2023/05/15 03:05:46;;;;;;;1.50;1.20;;;;;;;11.97;76.13;96372.96;108235;1257;103574;-74
2023/05/15 03:08:15;;;;;;;1.60;1.40;;;;;;;11.98;76.02;96376.60;108740;1253;101039;-77
2023/05/15 03:10:43;;;;;;;1.40;1.20;;;;;;;11.99;76.17;96373.70;108528;1252;99445;-75
2023/05/15 03:13:11;;;;;;;2.30;1.20;;;;;;;12.00;76.17;96372.85;108759;1253;95882;-75
2023/05/15 03:15:39;;;;;;;4.20;1.30;;;;;;;12.00;76.13;96370.22;108836;1253;96056;-76
2023/05/15 03:18:07;;;;;;;1.70;1.30;;;;;;;12.01;76.26;96370.95;108835;1253;103768;-76
2023/05/15 03:20:35;;;;;;;1.40;1.30;;;;;;;12.01;76.27;96369.91;108804;1252;101249;-75
2023/05/15 03:23:03;;;;;;;3.00;1.80;;;;;;;12.04;76.25;96369.76;108754;1251;100118;-75
2023/05/15 03:25:31;;;;;;;2.80;1.90;;;;;;;12.07;76.16;96370.98;108765;1252;95622;-75
2023/05/15 03:27:59;;;;;;;3.50;1.80;;;;;;;12.08;76.25;96365.81;108794;1253;96118;-77
2023/05/15 03:30:28;;;;;;;2.10;1.90;;;;;;;12.07;76.32;96359.52;108837;1253;103566;-76
2023/05/15 03:32:56;;;;;;;3.40;1.80;;;;;;;12.05;76.46;96355.27;108794;1253;101389;-75
2023/05/15 03:35:25;;;;;;;1.90;1.70;;;;;;;12.01;76.57;96349.67;108511;1253;99811;-74
2023/05/15 03:37:53;;;;;;;2.70;1.80;;;;;;;12.01;76.59;96340.41;108754;1253;95850;-75
2023/05/15 03:40:21;;;;;;;2.00;1.60;;;;;;;12.01;76.58;96333.88;108778;1253;96003;-75
2023/05/15 03:42:52;;;;;;;2.00;1.40;;;;;;;12.01;76.74;96329.50;108791;1253;103377;-75
2023/05/15 03:45:20;;;;;;;2.00;1.60;;;;;;;12.00;76.87;96328.77;108784;1254;101624;-76
2023/05/15 03:47:49;;;;;;;1.40;1.30;;;;;;;11.98;76.89;96324.54;108858;1250;99893;-77
2023/05/15 03:50:17;;;;;;;1.50;1.10;;;;;;;11.98;76.91;96320.20;108514;1255;95672;-77
2023/05/15 03:52:45;;;;;;;1.80;1.30;;;;;;;12.01;77.02;96318.90;108914;1250;96038;-75
2023/05/15 03:55:13;;;;;;;2.60;1.50;;;;;;;12.04;77.00;96316.67;108891;1250;103643;-75
2023/05/15 03:57:41;;;;;;;2.20;2.00;;;;;;;12.06;77.13;96314.88;108668;1251;101851;-77
2023/05/15 04:00:10;;;;;;;2.20;1.50;;;;;;;12.09;77.00;96314.04;108700;1251;101223;-78
2023/05/15 04:02:39;;;;;;;3.10;1.80;;;;;;;12.11;77.09;96313.55;108864;1251;95547;-74
2023/05/15 04:05:08;;;;;;;2.40;1.80;;;;;;;12.14;77.15;96309.91;108876;1251;95943;-76
2023/05/15 04:07:37;;;;;;;4.50;1.50;;;;;;;12.18;77.17;96309.65;108939;1251;104035;-77
2023/05/15 04:10:06;;;;;;;2.00;1.60;;;;;;;12.21;77.13;96305.89;108909;1252;101395;-75
2023/05/15 04:12:35;;;;;;;2.70;1.50;;;;;;;12.23;77.25;96302.41;108877;1250;99519;-75
2023/05/15 04:15:20;;;;;;;1.40;1.30;;;;;;;12.24;77.21;96298.59;108863;1250;95549;-76
2023/05/15 04:17:53;;;;;;;1.70;1.00;;;;;;;12.27;77.30;96296.38;108885;1254;96287;-77
2023/05/15 04:20:23;;;;;;;1.90;1.20;;;;;;;12.29;77.45;96286.55;108846;1256;103633;-75
2023/05/15 04:22:52;;;;;;;0.90;0.90;;;;;;;12.32;77.56;96281.22;108886;1250;101381;-75
2023/05/15 04:25:21;;;;;;;1.20;0.80;;;;;;;12.34;77.20;96278.21;108869;1251;108732;-75
2023/05/15 04:27:49;;;;;;;0.80;0.80;;;;;;;12.38;77.42;96273.73;108852;1251;95548;-75
2023/05/15 04:30:17;;;;;;;0.80;0.80;;;;;;;12.41;77.32;96271.35;108842;1254;96023;-78
2023/05/15 04:32:45;;;;;;;1.30;1.20;;;;;;;12.44;77.34;96260.38;108873;1250;103357;-74
2023/05/15 04:35:14;;;;;;;1.30;0.90;;;;;;;12.48;77.26;96258.54;108875;1250;101085;-75
2023/05/15 04:37:44;;;;;;;1.90;0.90;;;;;;;12.51;77.35;96263.89;108880;1251;100241;-74
2023/05/15 04:40:14;;;;;;;1.30;0.80;;;;;;;12.54;77.34;96269.14;108655;1251;95856;-75
2023/05/15 04:42:42;;;;;;;1.20;0.70;;;;;;;12.56;77.37;96274.83;108658;1251;96001;-76
2023/05/15 04:45:11;;;;;;;0.70;0.70;;;;;;;12.57;77.47;96281.23;108863;1250;103940;-74
2023/05/15 04:47:39;;;;;;;1.70;1.20;;;;;;;12.59;77.40;96278.92;108910;1251;99527;-76
2023/05/15 04:50:08;;;;;;;1.20;1.10;;;;;;;12.65;77.24;96274.89;108683;1251;99696;-75
2023/05/15 04:52:36;;;;;;;1.40;0.90;;;;;;;12.71;77.34;96273.88;108868;1251;95853;-75
2023/05/15 04:55:04;;;;;;;1.20;1.10;;;;;;;12.76;77.62;96273.57;108868;1251;96087;-78
2023/05/15 04:57:32;;;;;;;1.20;1.10;;;;;;;12.81;77.80;96260.95;108601;1250;104277;-75
2023/05/15 05:00:00;;;;;;;1.00;1.00;;;;;;;12.84;77.74;96253.19;108910;1250;100513;-78
2023/05/15 05:02:28;;;;;;;3.50;1.10;;;;;;;12.86;77.95;96252.84;108891;1251;99488;-77
2023/05/15 05:04:57;;;;;;;2.10;1.20;;;;;;;12.87;78.06;96259.36;108904;1250;95578;-74
2023/05/15 05:07:25;;;;;;;2.50;1.80;;;;;;;12.91;77.93;96264.27;108864;1250;96453;-76
2023/05/15 05:09:53;;;;;;;3.40;2.00;;;;;;;12.93;77.97;96267.52;108915;1251;103694;-75
2023/05/15 05:12:21;;;;;;;4.50;1.60;;;;;;;12.93;77.97;96277.39;108882;1251;101023;-75
2023/05/15 05:14:49;;;;;;;2.60;1.80;;;;;;;12.94;78.06;96292.62;108850;1251;100241;-75
2023/05/15 05:17:17;;;;;;;2.40;1.40;;;;;;;12.94;77.96;96298.80;108787;1251;95543;-75
2023/05/15 05:19:45;;;;;;;1.60;1.30;;;;;;;12.97;77.91;96304.15;108904;1250;95996;-74
2023/05/15 05:22:13;;;;;;;2.20;1.40;;;;;;;12.97;77.82;96307.73;108883;1250;103681;-77
2023/05/15 05:24:41;;;;;;;1.30;1.20;;;;;;;12.95;77.87;96302.23;108645;1251;99986;-76
2023/05/15 05:27:09;;;;;;;1.40;1.30;;;;;;;12.90;77.89;96302.45;108880;1251;99987;-74
2023/05/15 05:29:38;;;;;;;1.40;1.30;;;;;;;12.86;77.91;96302.02;108875;1250;95811;-75
2023/05/15 05:32:07;;;;;;;1.50;1.20;;;;;;;12.83;77.52;96294.89;108915;1251;96076;-75
2023/05/15 05:34:35;;;;;;;2.30;1.40;;;;;;;12.83;77.59;96294.34;108935;1251;103739;-75
2023/05/15 05:37:03;;;;;;;4.50;1.50;;;;;;;12.83;77.51;96300.78;108914;1250;101521;-75
2023/05/15 05:39:31;;;;;;;1.60;1.50;;;;;;;12.83;77.37;96300.61;108863;1251;99903;-76
2023/05/15 05:41:59;;;;;;;3.20;1.60;;;;;;;12.83;77.39;96300.77;108863;1251;95594;-77
2023/05/15 05:44:27;;;;;;;2.80;1.60;;;;;;;12.83;77.57;96296.34;108895;1250;95967;-74
2023/05/15 05:46:56;;;;;;;2.60;1.60;;;;;;;12.83;77.52;96289.80;108888;1251;102538;-75
2023/05/15 05:49:24;;;;;;;3.40;1.60;;;;;;;12.83;77.57;96276.73;108869;1251;110010;-76
2023/05/15 05:51:52;;;;;;;1.40;1.30;;;;;;;12.83;77.64;96265.30;108922;1251;99902;-75
2023/05/15 05:54:20;;;;;;;1.70;1.30;;;;;;;12.84;77.46;96255.58;108536;1251;95704;-75
2023/05/15 05:56:48;;;;;;;2.50;1.10;;;;;;;12.86;77.41;96249.69;108556;1251;96000;-76
2023/05/15 05:59:16;;;;;;;1.10;1.00;;;;;;;12.88;77.46;96253.56;108908;1250;103667;-78
2023/05/15 06:01:44;;;;;;;2.90;1.30;;;;;;;12.90;77.49;96251.86;108923;1250;100983;-76
2023/05/15 06:04:14;;;;;;;1.90;1.00;;;;;;;12.92;77.71;96251.65;108854;1251;99884;-75
2023/05/15 06:06:42;;;;;;;1.20;1.10;;;;;;;12.94;77.89;96248.90;108862;1250;95798;-77
2023/05/15 06:09:10;;;;;;;1.70;1.20;;;;;;;12.96;77.82;96246.45;108859;1250;95971;-75
2023/05/15 06:11:38;;;;;;;1.30;1.20;;;;;;;13.02;77.79;96248.90;108786;1251;102715;-76
2023/05/15 06:14:07;;;;;;;2.10;1.60;;;;;;;13.08;77.62;96247.27;108893;1251;101614;-76
2023/05/15 06:16:35;;;;;;;1.50;1.40;;;;;;;13.15;77.62;96236.98;108887;1250;100043;-76
2023/05/15 06:19:03;;;;;;;1.90;1.70;;;;;;;13.20;77.56;96233.23;108872;1251;95541;-75
2023/05/15 06:21:31;;;;;;;3.30;1.60;;;;;;;13.26;77.63;96234.39;108932;1251;96023;-79
2023/05/15 06:23:59;;;;;;;2.70;2.00;;;;;;;13.33;77.66;96234.61;108854;1251;103482;-76
2023/05/15 06:26:27;;;;;;;1.70;1.60;;;;;;;13.40;77.63;96226.05;108922;1250;101384;-76
2023/05/15 06:28:55;;;;;;;3.40;1.70;;;;;;;13.47;77.57;96225.36;108702;1251;99842;-77
2023/05/15 06:31:23;;;;;;;2.10;1.80;;;;;;;13.55;77.56;96227.98;108855;1250;95536;-74
2023/05/15 06:33:52;;;;;;;4.50;3.90;;;;;;;13.64;77.33;96220.13;108919;1250;95953;-76
2023/05/15 06:36:20;;;;;;;5.50;4.50;;;;;;;13.70;77.36;96218.66;108893;1251;103715;-76
2023/05/15 06:38:48;;;;;;;5.10;4.30;;;;;;;13.74;77.13;96218.64;108870;1251;101176;-75
2023/05/15 06:41:16;;;;;;;4.90;4.30;;;;;;;13.75;77.24;96210.02;108900;1251;99962;-75
2023/05/15 06:43:44;;;;;;;5.70;3.90;;;;;;;13.78;77.36;96204.55;108581;1251;95633;-75
2023/05/15 06:46:15;;;;;;;2.70;2.30;;;;;;;13.82;77.68;96200.62;108913;1251;96000;-75
2023/05/15 06:48:43;;;;;;;4.80;1.90;;;;;;;13.87;77.44;96195.23;108912;1250;103649;-75
2023/05/15 06:51:11;;;;;;;2.40;2.20;;;;;;;13.92;77.39;96192.98;108923;1251;101244;-75
2023/05/15 06:53:41;;;;;;;6.50;3.20;;;;;;;13.98;77.31;96194.93;108607;1251;100392;-75
2023/05/15 06:56:10;;;;;;;3.10;2.80;;;;;;;14.03;77.18;96194.08;108703;1250;95741;-75
2023/05/15 06:58:38;;;;;;;3.10;2.60;;;;;;;14.09;77.14;96200.70;108879;1251;96009;-75
2023/05/15 07:01:08;;;;;;;1.40;1.30;;;;;;;14.16;76.97;96203.27;108634;1249;103284;-78
2023/05/15 07:03:36;;;;;;;13.10;1.30;;;;;;;14.21;76.90;96202.34;108911;1250;101368;-75
2023/05/15 07:06:04;;;;;;;0.80;0.80;;;;;;;14.26;76.87;96208.05;108915;1251;99816;-75
2023/05/15 07:08:32;;;;;;;1.60;0.90;;;;;;;14.30;76.67;96210.08;108864;1251;95544;-75
2023/05/15 07:11:00;;;;;;;1.30;1.00;;;;;;;14.35;76.63;96202.73;108861;1251;97017;-75
2023/05/15 07:13:29;;;;;;;1.20;1.10;;;;;;;14.42;76.69;96207.13;108920;1251;103088;-77
2023/05/15 07:15:57;;;;;;;4.70;4.20;;;;;;;14.52;76.81;96212.83;108869;1250;101276;-75
2023/05/15 07:18:25;;;;;;;6.10;5.00;;;;;;;14.61;76.57;96211.52;108627;1250;99864;-74
2023/05/15 07:20:53;;;;;;;6.10;5.10;;;;;;;14.70;76.22;96216.00;108889;1250;95520;-75
2023/05/15 07:23:21;;;;;;;5.10;4.30;;;;;;;14.77;76.02;96220.75;108616;1251;96220;-77
2023/05/15 07:25:49;;;;;;;5.40;3.80;;;;;;;14.83;76.15;96221.80;108875;1251;103071;-75
2023/05/15 07:28:17;;;;;;;4.10;2.70;;;;;;;14.86;76.13;96220.23;108902;1250;101021;-78
2023/05/15 07:30:45;;;;;;;2.80;2.30;;;;;;;14.96;76.14;96224.50;108653;1253;99067;-76
2023/05/15 07:33:14;;;;;;;3.20;2.70;;;;;;;15.07;75.76;96225.89;108836;1250;95956;-75
2023/05/15 07:35:42;;;;;;;2.10;1.90;;;;;;;15.23;75.25;96224.95;108884;1251;96015;-77
2023/05/15 07:38:11;;;;;;;2.70;1.70;;;;;;;15.44;74.95;96222.37;108872;1251;103446;-76
2023/05/15 07:40:39;;;;;;;3.30;1.80;;;;;;;15.69;74.49;96221.54;108585;1251;101290;-76
2023/05/15 07:43:07;;;;;;;1.60;1.40;;;;;;;16.01;74.28;96217.65;108859;1250;100255;-76
2023/05/15 07:45:35;;;;;;;2.60;1.30;;;;;;;16.36;74.30;96216.81;108799;1250;95729;-76
2023/05/15 07:48:20;;;;;;;2.60;1.30;;;;;;;16.63;73.52;96223.17;108857;1250;95943;-75
2023/05/15 07:50:49;;;;;;;3.00;1.20;;;;;;;16.83;72.59;96228.29;108844;1250;103225;-76
2023/05/15 07:53:21;;;;;;;3.60;1.30;;;;;;;16.91;71.76;96232.60;108715;1250;101567;-76
2023/05/15 07:55:49;;;;;;;2.30;1.60;;;;;;;16.88;70.94;96242.12;108865;1250;100113;-77
2023/05/15 07:58:17;;;;;;;2.10;1.30;;;;;;;16.84;70.73;96254.27;108806;1251;95713;-73
2023/05/15 08:00:45;;;;;;;1.50;1.40;;;;;;;16.80;70.75;96259.47;108856;1251;96039;-75
2023/05/15 08:03:14;;;;;;;1.60;1.50;;;;;;;16.70;70.31;96257.49;108891;1251;103455;-75
2023/05/15 08:05:42;;;;;;;2.50;1.50;;;;;;;16.61;70.28;96256.30;108903;1250;101286;-77
2023/05/15 08:08:10;;;;;;;2.60;1.50;;;;;;;16.57;70.28;96252.75;108811;1250;100046;-76
2023/05/15 08:10:39;;;;;;;1.60;1.50;;;;;;;16.57;70.35;96248.17;108652;1250;95662;-76
2023/05/15 08:13:07;;;;;;;2.20;1.50;;;;;;;16.63;70.32;96241.39;108886;1250;96032;-74
2023/05/15 08:15:35;;;;;;;3.70;1.60;;;;;;;16.73;70.31;96239.61;108727;1249;103502;-77
2023/05/15 08:18:09;;;;;;;1.70;1.10;;;;;;;16.94;70.34;96235.86;108854;1251;101394;-77
2023/05/15 08:20:38;;;;;;;1.70;1.10;;;;;;;17.25;69.43;96235.20;108826;1250;100117;-79
2023/05/15 08:23:07;;;;;;;1.20;0.90;;;;;;;17.56;68.57;96235.99;108893;1250;95874;-77
2023/05/15 08:25:35;;;;;;;1.60;1.10;;;;;;;17.79;67.98;96234.05;108862;1250;95976;-75
2023/05/15 08:28:04;;;;;;;2.40;1.10;;;;;;;17.91;67.85;96236.56;108878;1250;103543;-79
2023/05/15 08:30:32;;;;;;;1.40;1.20;;;;;;;18.02;67.16;96239.15;108940;1250;101206;-75
2023/05/15 08:33:00;;;;;;;1.90;1.40;;;;;;;18.08;66.25;96236.97;108604;1250;100064;-75
2023/05/15 08:35:29;;;;;;;1.90;1.10;;;;;;;18.10;66.15;96239.02;108569;1251;95593;-76
2023/05/15 08:37:58;;;;;;;1.80;1.30;;;;;;;18.08;66.16;96240.45;108876;1250;95584;-78
2023/05/15 08:40:27;;;;;;;2.00;1.20;;;;;;;18.08;65.96;96239.15;108906;1250;103534;-75
2023/05/15 08:42:59;;;;;;;1.70;1.40;;;;;;;18.08;65.88;96237.19;108883;1251;101240;-75
2023/05/15 08:45:28;;;;;;;3.50;1.70;;;;;;;18.12;65.59;96239.70;108859;1250;99929;-75
2023/05/15 08:47:59;;;;;;;3.50;1.70;;;;;;;18.25;65.60;96240.78;108671;1250;95632;-79
2023/05/15 08:50:29;;;;;;;1.80;1.20;;;;;;;18.35;65.43;96240.90;108883;1250;96083;-77
2023/05/15 08:53:00;;;;;;;1.10;1.10;;;;;;;18.40;65.25;96246.25;108900;1250;103718;-79
2023/05/15 08:55:28;;;;;;;1.10;1.00;;;;;;;18.42;64.99;96252.30;108848;1250;109653;-73
2023/05/15 08:57:57;;;;;;;1.90;1.20;;;;;;;18.38;64.90;96256.33;108871;1250;99874;-76
2023/05/15 09:00:26;;;;;;;1.50;1.00;;;;;;;18.35;65.39;96255.44;108699;1250;189329;-77
2023/05/15 09:02:54;;;;;;;1.00;0.90;;;;;;;18.32;65.10;96255.85;108888;1250;95993;-74
2023/05/15 09:05:23;;;;;;;1.10;1.00;;;;;;;18.32;64.51;96256.89;108868;1250;103465;-74
2023/05/15 09:07:54;;;;;;;1.30;1.00;;;;;;;18.27;64.12;96255.77;108893;1250;101357;-78
2023/05/15 09:10:23;;;;;;;1.10;1.00;;;;;;;18.20;63.71;96253.40;108891;1250;99940;-74
2023/05/15 09:12:52;;;;;;;1.00;1.00;;;;;;;18.14;63.43;96254.71;108883;1250;95589;-75
2023/05/15 09:15:23;;;;;;;2.10;1.30;;;;;;;18.07;63.37;96259.36;108868;1250;95970;-77
2023/05/15 09:17:52;;;;;;;2.00;1.20;;;;;;;18.05;63.32;96251.63;108710;1250;111160;-75
2023/05/15 09:20:32;;;;;;;1.00;0.80;;;;;;;18.06;63.11;96250.91;108640;1250;100738;-75
2023/05/15 09:23:03;;;;;;;1.90;1.00;;;;;;;18.05;62.63;96251.89;108754;1250;99983;-75
2023/05/15 09:25:34;;;;;;;0.90;0.90;;;;;;;18.11;62.35;96258.23;108902;1250;95573;-78
2023/05/15 09:28:02;;;;;;;1.10;1.00;;;;;;;18.20;61.96;96251.38;108899;1250;95767;-78
2023/05/15 09:30:30;;;;;;;1.10;0.90;;;;;;;18.27;61.55;96257.70;108882;1250;104187;-76
2023/05/15 09:33:02;;;;;;;3.60;1.00;;;;;;;18.32;62.14;96261.98;108629;1251;101171;-76
2023/05/15 09:35:34;;;;;;;1.50;1.00;;;;;;;18.42;62.14;96269.64;108874;1250;99944;-77
2023/05/15 09:38:03;;;;;;;;;;;;;;;18.50;61.45;96270.70;108836;1250;95578;-76
2023/05/15 09:40:32;;;;;;;1.90;1.50;;;;;;;18.55;61.00;96270.54;108896;1250;95999;-77
2023/05/15 09:43:00;;;;;;;3.50;1.10;;;;;;;18.60;60.81;96266.46;108913;1250;102078;-75
2023/05/15 09:45:30;;;;;;;2.60;1.20;;;;;;;18.61;60.64;96259.13;108883;1250;101309;-76
2023/05/15 09:48:05;;;;;;;1.40;0.90;;;;;;;18.59;60.27;96259.81;108855;1250;100124;-79
2023/05/15 09:50:35;;;;;;;2.80;1.30;;;;;;;18.57;60.06;96262.61;108822;1250;95638;-76
2023/05/15 09:53:05;;;;;;;3.60;1.10;;;;;;;18.60;60.06;96262.84;108816;1251;95998;-77
2023/05/15 09:55:35;;;;;;;3.10;0.90;;;;;;;18.69;60.24;96259.48;108676;1250;103646;-75
2023/05/15 09:58:13;;;;;;;0.80;0.80;;;;;;;18.82;60.17;96250.63;108851;1250;101389;-76
2023/05/15 10:00:42;;;;;;;2.10;1.30;;;;;;;18.94;59.45;96249.13;108871;1250;99858;-76
2023/05/15 10:03:11;;;;;;;3.80;1.00;;;;;;;19.01;59.26;96247.61;108846;1250;95588;-76
2023/05/15 10:05:40;;;;;;;1.30;1.00;;;;;;;19.06;58.95;96244.12;108884;1250;96148;-76
2023/05/15 10:08:08;;;;;;;1.40;1.10;;;;;;;19.08;58.69;96239.64;108880;1250;103810;-76
2023/05/15 10:10:36;;;;;;;1.30;1.20;;;;;;;19.05;58.39;96245.16;108883;1250;101374;-76
2023/05/15 10:13:04;;;;;;;1.00;0.90;;;;;;;19.02;58.38;96253.84;108570;1250;98400;-76
2023/05/15 10:15:33;;;;;;;1.00;1.00;;;;;;;19.05;58.14;96258.34;108868;1250;95859;-75
2023/05/15 10:18:04;;;;;;;1.50;0.90;;;;;;;19.04;58.24;96261.69;108877;1250;95866;-75
2023/05/15 10:20:34;;;;;;;1.30;1.20;;;;;;;18.97;58.17;96266.30;108914;1250;103061;-76
2023/05/15 10:23:05;;;;;;;1.00;0.90;;;;;;;18.94;58.29;96263.78;108870;1250;101303;-77
2023/05/15 10:25:56;;;;;;;1.70;1.30;;;;;;;18.90;58.22;96267.00;108861;1250;98965;-76
2023/05/15 10:28:25;;;;;;;1.10;1.00;;;;;;;18.81;58.09;96262.41;108854;1250;95590;-75
2023/05/15 10:30:56;;;;;;;3.20;1.10;;;;;;;18.71;58.46;96268.05;108923;1250;95826;-75
2023/05/15 10:33:25;;;;;;;5.10;1.40;;;;;;;18.67;58.79;96270.27;108883;1250;102546;-79
2023/05/15 10:36:01;;;;;;;1.30;0.90;;;;;;;18.62;58.68;96279.02;108882;1250;100490;-76
2023/05/15 10:38:33;;;;;;;1.40;1.20;;;;;;;18.51;58.49;96279.00;108599;1250;100114;-77
2023/05/15 10:41:03;;;;;;;2.80;1.40;;;;;;;18.42;58.65;96279.69;108801;1250;95607;-76
2023/05/15 10:43:31;;;;;;;1.60;1.30;;;;;;;18.30;58.39;96283.13;108941;1250;95971;-76
2023/05/15 10:46:00;;;;;;;1.40;1.10;;;;;;;18.20;58.23;96293.11;108828;1251;103785;-79
2023/05/15 10:48:29;;;;;;;1.70;0.90;;;;;;;18.13;58.45;96292.84;108855;1250;101405;-76
2023/05/15 10:51:00;;;;;;;2.50;0.70;;;;;;;18.02;58.37;96292.77;108840;1250;100160;-76
2023/05/15 10:53:28;;;;;;;1.50;0.50;;;;;;;17.90;58.49;96292.81;108843;1250;95916;-78
2023/05/15 10:55:56;;;;;;;0.50;0.40;;;;;;;17.83;58.63;96285.44;108885;1250;95911;-75
2023/05/15 10:58:25;;;;;;;1.10;0.80;;;;;;;17.79;59.04;96285.85;108885;1250;103252;-75
2023/05/15 11:00:53;;;;;;;1.10;0.70;;;;;;;17.75;59.38;96285.21;108897;1250;101219;-76
2023/05/15 11:03:38;;;;;;;1.10;0.50;;;;;;;17.72;58.72;96290.88;108837;1251;99974;-75
2023/05/15 11:06:13;;;;;;;1.10;0.60;;;;;;;17.68;58.26;96296.18;108870;1250;95615;-78
2023/05/15 11:08:43;;;;;;;0.60;0.50;;;;;;;17.63;58.07;96299.92;108960;1250;95579;-76
2023/05/15 11:11:49;;;;;;;1.80;0.60;;;;;;;17.57;57.97;96301.63;108871;1251;103507;-78
2023/05/15 11:14:18;;;;;;;1.80;0.50;;;;;;;17.50;57.56;96287.81;108614;1250;100664;-77
2023/05/15 11:16:56;;;;;;;2.10;0.60;;;;;;;17.54;57.80;96282.82;108862;1250;99879;-75
2023/05/15 11:19:50;;;;;;;1.50;0.70;;;;;;;17.58;57.66;96282.30;108861;1250;95839;-78
2023/05/15 11:22:19;;;;;;;0.90;0.50;;;;;;;17.62;58.01;96288.63;108167;1258;95817;-78
2023/05/15 11:24:49;;;;;;;0.40;0.30;;;;;;;17.67;58.53;96295.59;108212;1258;103084;-75
2023/05/15 11:27:22;;;;;;;1.50;0.40;;;;;;;17.71;57.95;96293.45;108217;1258;101046;-75
2023/05/15 11:30:07;;;;;;;0.30;0.30;;;;;;;17.76;58.21;96295.36;108205;1258;99800;-80
2023/05/15 11:32:54;;;;;;;1.50;0.80;;;;;;;17.79;57.46;96300.42;108238;1258;96284;-76
2023/05/15 11:35:26;;;;;;;1.90;0.80;;;;;;;17.84;57.41;96298.21;108110;1258;96517;-77